Time;durP1;ratioP1;P1;durP2;ratioP2;P2;SDS_P1;SDS_P2;PMS_P1;PMS_P2;Temp;Humidity;BMP_temperature;BMP_pressure;BME280_temperature;BME280_humidity;BME280_pressure;Samples;Min_cycle;Max_cycle;Signal;HPM_P1;HPM_P2
2022/01/20 00:02:08;;;;;;;276.90;129.47;;;;;;;-1.20;57.92;95671.22;4939770;29;20028;-79
2022/01/20 00:07:33;;;;;;;264.92;122.55;;;;;;;-1.26;57.90;95667.50;4930917;29;20047;-78
2022/01/20 00:26:25;;;;;;;294.88;136.10;;;;;;;-1.23;58.61;95651.91;4909029;29;20558;-78
2022/01/20 00:28:55;;;;;;;281.88;133.75;;;;;;;-1.24;58.63;95649.47;4907286;29;20087;-78
2022/01/20 00:33:54;;;;;;;333.30;152.38;;;;;;;-1.31;58.02;95649.22;4905453;29;20389;-78
2022/01/20 00:39:00;;;;;;;284.15;127.65;;;;;;;-1.32;57.65;95652.72;4908683;29;20031;-78
2022/01/20 00:41:26;;;;;;;285.33;135.43;;;;;;;-1.37;57.92;95643.88;4937761;29;20063;-78
2022/01/20 00:43:51;;;;;;;280.30;130.52;;;;;;;-1.33;57.84;95645.19;4887201;29;20044;-78
2022/01/20 00:46:17;;;;;;;284.52;124.75;;;;;;;-1.40;57.35;95639.84;4919816;29;20046;-78
2022/01/20 00:48:42;;;;;;;289.98;122.78;;;;;;;-1.42;57.66;95646.84;4903661;29;20030;-78
2022/01/20 00:51:08;;;;;;;301.80;123.88;;;;;;;-1.51;57.84;95638.25;4919679;29;20425;-78
2022/01/20 00:53:34;;;;;;;278.00;116.43;;;;;;;-1.46;57.94;95632.75;4936522;29;20032;-79
2022/01/20 00:56:00;;;;;;;288.67;118.68;;;;;;;-1.41;57.80;95633.16;4905110;29;20055;-79
2022/01/20 00:58:25;;;;;;;244.05;101.47;;;;;;;-1.40;58.38;95639.84;4905128;29;20044;-78
2022/01/20 01:00:51;;;;;;;267.77;115.78;;;;;;;-1.44;57.86;95633.44;4904615;29;20142;-79
2022/01/20 01:03:17;;;;;;;254.20;113.68;;;;;;;-1.42;58.13;95635.84;4920016;29;20059;-79
2022/01/20 01:06:00;;;;;;;255.60;104.07;;;;;;;-1.43;56.76;95639.34;4937860;29;20031;-79
2022/01/20 01:08:25;;;;;;;222.35;91.97;;;;;;;-1.49;57.15;95634.75;4893608;29;20071;-78
2022/01/20 01:10:51;;;;;;;199.88;85.10;;;;;;;-1.62;57.59;95637.63;4903889;29;20032;-79
2022/01/20 01:13:18;;;;;;;181.32;82.20;;;;;;;-1.70;58.29;95628.09;4919751;29;20040;-78
2022/01/20 01:15:48;;;;;;;183.82;80.68;;;;;;;-1.71;58.85;95641.78;4903740;29;20020;-78
2022/01/20 01:23:26;;;;;;;193.60;80.03;;;;;;;-1.72;58.67;95609.59;4905642;29;20115;-78
2022/01/20 01:25:52;;;;;;;182.30;76.45;;;;;;;-1.72;58.65;95608.78;4904408;29;20447;-78
2022/01/20 01:28:19;;;;;;;186.10;77.40;;;;;;;-1.81;59.21;95621.38;4937453;29;20032;-78
2022/01/20 01:33:13;;;;;;;203.32;80.22;;;;;;;-1.70;60.39;95612.78;4937223;29;20039;-79
2022/01/20 01:35:41;;;;;;;179.75;79.03;;;;;;;-1.65;59.09;95605.53;4904695;29;20120;-78
2022/01/20 01:40:33;;;;;;;169.52;76.82;;;;;;;-1.69;59.10;95603.41;4938772;29;20031;-79
2022/01/20 01:43:02;;;;;;;158.20;73.95;;;;;;;-1.72;59.24;95601.13;4905070;29;20073;-78
2022/01/20 01:45:30;;;;;;;174.68;77.15;;;;;;;-1.70;58.96;95600.03;4906100;29;20027;-79
2022/01/20 01:47:55;;;;;;;170.15;79.25;;;;;;;-1.72;59.42;95591.72;4905048;29;20047;-78
2022/01/20 01:50:21;;;;;;;170.82;81.70;;;;;;;-1.71;59.19;95585.69;4904031;29;20052;-78
2022/01/20 01:52:47;;;;;;;179.77;84.55;;;;;;;-1.68;59.35;95589.72;4904419;29;20032;-78
2022/01/20 01:55:15;;;;;;;170.38;81.32;;;;;;;-1.74;59.41;95580.88;4937369;29;20031;-79
2022/01/20 01:57:40;;;;;;;170.45;77.65;;;;;;;-1.68;59.26;95575.22;4921388;29;20032;-78
2022/01/20 02:00:07;;;;;;;172.60;79.50;;;;;;;-1.64;59.12;95578.28;4904554;29;20530;-78
2022/01/20 02:02:32;;;;;;;166.73;74.05;;;;;;;-1.68;59.72;95574.41;4904626;29;20078;-78
2022/01/20 02:04:58;;;;;;;162.18;71.20;;;;;;;-1.62;60.02;95573.88;4919876;29;20475;-78
2022/01/20 02:07:51;;;;;;;168.00;74.28;;;;;;;-1.63;59.73;95570.53;4937055;29;20650;-78
2022/01/20 02:21:04;;;;;;;149.80;69.53;;;;;;;-1.50;59.38;95565.09;4922246;29;20436;-78
2022/01/20 02:23:30;;;;;;;145.27;65.47;;;;;;;-1.52;59.00;95554.22;4936069;29;20052;-79
2022/01/20 02:25:55;;;;;;;111.03;52.25;;;;;;;-1.46;59.25;95556.25;4908808;29;20031;-79
2022/01/20 02:28:21;;;;;;;167.50;79.45;;;;;;;-1.46;58.70;95548.59;4910070;29;20023;-78
2022/01/20 02:30:48;;;;;;;179.90;81.47;;;;;;;-1.50;58.87;95552.34;4892620;29;20031;-78
2022/01/20 02:33:18;;;;;;;176.93;83.68;;;;;;;-1.43;58.05;95548.31;4942506;29;20036;-78
2022/01/20 02:35:53;;;;;;;167.15;77.78;;;;;;;-1.56;58.42;95548.63;4936484;29;20040;-79
2022/01/20 02:38:32;;;;;;;156.77;73.60;;;;;;;-1.61;58.81;95540.59;4918363;29;20036;-79
2022/01/20 02:46:28;;;;;;;173.13;79.40;;;;;;;-1.61;58.16;95534.69;4908235;29;20154;-80
2022/01/20 02:48:53;;;;;;;187.63;78.75;;;;;;;-1.67;58.33;95535.22;4904026;29;20032;-79
2022/01/20 02:51:19;;;;;;;220.02;92.03;;;;;;;-1.68;57.57;95536.16;4887456;29;20082;-79
2022/01/20 02:53:44;;;;;;;230.15;90.47;;;;;;;-1.70;57.94;95528.66;4936313;29;20031;-79
2022/01/20 02:56:10;;;;;;;249.68;96.03;;;;;;;-1.75;57.60;95535.13;4888401;29;20040;-79
2022/01/20 02:58:37;;;;;;;194.98;86.72;;;;;;;-1.74;57.85;95529.88;4918914;29;20040;-78
2022/01/20 03:01:03;;;;;;;198.70;89.28;;;;;;;-1.81;57.92;95529.63;4936655;29;20031;-79
2022/01/20 03:03:31;;;;;;;199.90;88.25;;;;;;;-1.86;58.98;95526.69;4904264;29;20119;-79
2022/01/20 03:05:58;;;;;;;192.13;83.50;;;;;;;-1.89;58.81;95526.16;4935294;29;20043;-78
2022/01/20 03:08:24;;;;;;;203.27;96.70;;;;;;;-1.87;58.57;95530.19;4927829;29;20046;-78
2022/01/20 03:10:52;;;;;;;209.10;100.47;;;;;;;-1.82;58.59;95522.91;4936178;29;20472;-79
2022/01/20 03:13:18;;;;;;;203.27;96.50;;;;;;;-1.79;58.51;95515.94;4922532;29;20039;-79
2022/01/20 03:15:43;;;;;;;213.15;101.55;;;;;;;-1.89;58.35;95516.78;4907661;29;20102;-79
2022/01/20 03:18:09;;;;;;;199.13;96.68;;;;;;;-1.86;57.68;95516.50;4923638;29;20035;-78
2022/01/20 03:20:34;;;;;;;204.05;94.18;;;;;;;-1.91;58.07;95523.75;4922761;29;20075;-79
2022/01/20 03:23:03;;;;;;;200.10;93.65;;;;;;;-1.93;59.18;95512.91;4923207;29;20039;-79
2022/01/20 03:25:29;;;;;;;223.73;105.65;;;;;;;-1.93;58.11;95525.63;4908194;29;20105;-80
2022/01/20 03:27:54;;;;;;;235.40;106.13;;;;;;;-2.00;58.82;95524.56;4954659;28;20039;-78
2022/01/20 03:30:20;;;;;;;277.77;132.57;;;;;;;-2.02;58.44;95516.25;4927747;29;20052;-79
2022/01/20 03:32:45;;;;;;;305.45;130.52;;;;;;;-1.96;58.23;95510.59;4912143;29;20042;-78
2022/01/20 03:35:12;;;;;;;262.90;123.32;;;;;;;-1.95;58.37;95507.13;4929283;28;20080;-79
2022/01/20 03:37:38;;;;;;;266.35;128.68;;;;;;;-2.00;58.50;95504.19;4922840;29;20059;-78
2022/01/20 03:40:04;;;;;;;272.23;131.25;;;;;;;-2.02;58.07;95503.50;4922002;29;20663;-79
2022/01/20 03:42:30;;;;;;;277.20;127.85;;;;;;;-2.10;58.83;95497.50;4921714;29;20040;-80
2022/01/20 03:44:55;;;;;;;239.55;116.45;;;;;;;-2.05;58.78;95503.78;4922626;29;20078;-80
2022/01/20 03:47:24;;;;;;;252.52;113.78;;;;;;;-2.06;58.73;95503.94;4940140;29;20047;-80
2022/01/20 03:50:08;;;;;;;267.73;122.63;;;;;;;-2.13;59.28;95501.91;4923628;29;20032;-80
2022/01/20 03:52:34;;;;;;;271.67;117.05;;;;;;;-2.10;59.11;95493.22;4923848;29;20063;-80
2022/01/20 03:54:59;;;;;;;240.07;118.63;;;;;;;-2.07;58.87;95497.22;4920724;29;20059;-79
2022/01/20 03:57:25;;;;;;;246.45;113.50;;;;;;;-2.12;58.25;95500.16;4906227;29;20036;-79
2022/01/20 03:59:51;;;;;;;205.15;91.90;;;;;;;-2.11;58.71;95501.81;4907126;29;20043;-79
2022/01/20 04:02:16;;;;;;;233.65;113.00;;;;;;;-2.17;58.53;95499.78;4905189;29;20468;-79
2022/01/20 04:04:42;;;;;;;231.02;110.07;;;;;;;-2.14;58.69;95502.06;4902678;29;20043;-78
2022/01/20 04:07:07;;;;;;;237.65;110.90;;;;;;;-2.17;58.42;95494.69;4936251;29;20488;-79
2022/01/20 04:09:35;;;;;;;214.52;103.25;;;;;;;-2.14;58.46;95491.88;4923206;29;20040;-78
2022/01/20 04:12:00;;;;;;;181.65;83.13;;;;;;;-2.14;58.94;95495.22;4907772;29;20044;-79
2022/01/20 04:14:28;;;;;;;194.90;99.07;;;;;;;-2.11;58.50;95494.16;4936633;29;20055;-78
2022/01/20 04:19:22;;;;;;;243.65;115.22;;;;;;;-2.08;57.92;95491.34;4917432;29;20047;-78
2022/01/20 04:21:47;;;;;;;264.55;130.07;;;;;;;-2.08;57.57;95480.34;4902483;29;20031;-78
2022/01/20 04:24:13;;;;;;;266.55;128.50;;;;;;;-2.20;58.30;95487.31;4903429;29;20095;-78
2022/01/20 04:26:39;;;;;;;245.82;127.30;;;;;;;-2.19;58.16;95479.53;4904255;29;20051;-79
2022/01/20 04:29:05;;;;;;;252.82;125.70;;;;;;;-2.10;57.66;95490.66;4888225;29;20035;-79
2022/01/20 04:31:31;;;;;;;342.48;164.18;;;;;;;-2.18;58.07;95488.78;4937201;29;20393;-79
2022/01/20 04:33:57;;;;;;;405.23;215.52;;;;;;;-2.24;58.80;95488.56;4905059;29;20131;-80
2022/01/20 04:36:26;;;;;;;358.40;181.27;;;;;;;-2.18;57.89;95480.34;4905738;29;20051;-81
2022/01/20 04:38:52;;;;;;;294.67;143.40;;;;;;;-2.16;57.86;95493.75;4905834;29;20456;-80
2022/01/20 04:41:17;;;;;;;288.30;127.53;;;;;;;-2.15;57.71;95488.50;4905729;29;20036;-80
2022/01/20 04:43:43;;;;;;;275.95;138.15;;;;;;;-2.06;57.48;95491.19;4936281;29;20067;-80
2022/01/20 04:49:09;;;;;;;251.18;121.68;;;;;;;-2.01;58.54;95491.56;4939649;29;20070;-81
2022/01/20 04:59:41;;;;;;;300.30;154.43;;;;;;;-2.06;57.85;95488.66;4907877;29;20043;-81
2022/01/20 05:02:06;;;;;;;290.92;152.25;;;;;;;-2.14;58.10;95489.31;4904652;29;20139;-80
2022/01/20 05:04:34;;;;;;;417.77;240.95;;;;;;;-2.13;58.06;95488.38;4889928;29;20525;-80
2022/01/20 05:06:59;;;;;;;447.30;263.92;;;;;;;-2.07;57.93;95485.28;4889706;29;20047;-80
2022/01/20 05:09:25;;;;;;;442.65;247.48;;;;;;;-2.04;58.02;95486.75;5050866;23;20044;-80
2022/01/20 05:12:04;;;;;;;380.95;201.52;;;;;;;-2.04;58.13;95479.91;4919079;29;20036;-80
2022/01/20 05:14:30;;;;;;;456.95;251.65;;;;;;;-2.01;57.71;95482.19;4889869;29;20040;-80
2022/01/20 05:16:56;;;;;;;432.35;217.90;;;;;;;-1.99;58.18;95480.28;4905978;29;20086;-78
2022/01/20 05:19:26;;;;;;;461.70;225.13;;;;;;;-2.00;58.24;95478.69;4935398;29;20373;-77
2022/01/20 05:21:51;;;;;;;387.05;185.25;;;;;;;-1.98;58.09;95481.09;4916344;29;20107;-77
2022/01/20 05:24:17;;;;;;;557.88;301.00;;;;;;;-1.95;57.20;95486.75;4900295;29;20477;-75
2022/01/20 05:26:42;;;;;;;542.58;294.27;;;;;;;-2.00;57.79;95488.88;4900270;29;20555;-75
2022/01/20 05:29:07;;;;;;;468.08;243.40;;;;;;;-1.95;57.70;95486.75;4915130;29;20032;-75
2022/01/20 05:31:33;;;;;;;468.55;254.63;;;;;;;-1.96;57.36;95490.22;4932737;29;20071;-76
2022/01/20 05:33:58;;;;;;;190.10;86.55;;;;;;;-1.86;58.42;95496.09;4899601;29;20042;-76
2022/01/20 05:36:24;;;;;;;408.70;209.77;;;;;;;-1.86;57.14;95490.19;4914489;29;20420;-75
2022/01/20 05:38:49;;;;;;;325.02;175.63;;;;;;;-1.95;56.83;95484.19;4898788;29;20055;-75
2022/01/20 05:41:15;;;;;;;195.50;102.75;;;;;;;-1.87;57.80;95486.84;4897849;29;20039;-75
2022/01/20 05:43:42;;;;;;;313.15;166.45;;;;;;;-1.93;56.60;95484.06;4882624;29;20039;-75
2022/01/20 05:46:09;;;;;;;268.98;130.32;;;;;;;-1.89;57.32;95486.19;4914529;29;20050;-75
2022/01/20 05:48:35;;;;;;;72.47;36.47;;;;;;;-1.91;56.61;95488.06;4898738;29;20027;-75
2022/01/20 05:51:04;;;;;;;84.63;43.38;;;;;;;-1.91;56.49;95492.38;4913877;29;20047;-75
2022/01/20 05:53:30;;;;;;;60.95;27.15;;;;;;;-1.87;55.86;95502.13;4929366;29;20039;-75
2022/01/20 05:55:55;;;;;;;69.35;30.52;;;;;;;-1.76;55.34;95500.38;4899238;29;20063;-77
2022/01/20 05:58:21;;;;;;;43.80;22.33;;;;;;;-1.69;54.92;95491.22;4913962;29;20527;-77
2022/01/20 06:00:46;;;;;;;67.95;32.08;;;;;;;-1.68;55.01;95492.81;4930431;29;20507;-77
2022/01/20 06:05:57;;;;;;;73.10;32.75;;;;;;;-1.60;54.49;95485.28;4931513;29;20487;-77
2022/01/20 06:08:22;;;;;;;99.22;47.80;;;;;;;-1.61;54.35;95484.50;4931350;29;20063;-75
2022/01/20 06:10:47;;;;;;;221.55;115.22;;;;;;;-1.59;54.12;95486.91;4930518;29;20051;-75
2022/01/20 06:13:13;;;;;;;423.95;238.73;;;;;;;-1.55;55.05;95486.47;4898285;29;20028;-75
2022/01/20 06:15:38;;;;;;;385.45;217.90;;;;;;;-1.66;55.51;95486.63;4914016;29;20035;-75
2022/01/20 06:18:04;;;;;;;444.98;258.70;;;;;;;-1.61;55.51;95493.88;4914504;29;20091;-75
2022/01/20 06:20:29;;;;;;;377.98;213.00;;;;;;;-1.58;56.60;95491.03;4930868;29;20032;-75
2022/01/20 06:22:55;;;;;;;425.25;246.57;;;;;;;-1.51;55.11;95495.44;4914078;29;20493;-75
2022/01/20 06:25:20;;;;;;;457.55;273.10;;;;;;;-1.42;55.93;95493.78;4914566;29;20141;-76
2022/01/20 06:27:46;;;;;;;372.15;206.70;;;;;;;-1.31;55.27;95496.13;4913555;29;20463;-76
2022/01/20 06:30:11;;;;;;;346.65;167.85;;;;;;;-1.16;53.88;95498.22;4913690;29;20063;-76
2022/01/20 06:32:37;;;;;;;557.08;323.90;;;;;;;-1.04;54.54;95487.69;4930776;29;20054;-76
2022/01/20 06:35:03;;;;;;;524.30;304.27;;;;;;;-0.88;54.46;95501.56;4898160;29;20071;-77
2022/01/20 06:37:28;;;;;;;544.28;309.48;;;;;;;-0.62;53.79;95498.16;4929425;29;20087;-76
2022/01/20 06:39:53;;;;;;;445.42;237.18;;;;;;;-0.36;53.11;95487.16;4898399;29;20040;-76
2022/01/20 06:42:19;;;;;;;481.23;269.52;;;;;;;-0.01;52.40;95499.88;4934770;29;20047;-76
2022/01/20 06:44:44;;;;;;;474.85;257.27;;;;;;;0.33;51.24;95488.94;4916853;29;20087;-77
2022/01/20 06:47:10;;;;;;;456.75;246.68;;;;;;;0.74;50.47;95491.66;4935978;29;20036;-76
2022/01/20 06:49:35;;;;;;;304.00;144.23;;;;;;;0.97;49.18;95468.84;4917016;29;20046;-76
2022/01/20 06:52:01;;;;;;;228.77;114.90;;;;;;;1.23;48.41;95476.41;4932468;29;20032;-76
2022/01/20 06:54:26;;;;;;;327.77;160.30;;;;;;;1.51;48.46;95467.50;4901199;29;20431;-76
2022/01/20 06:56:52;;;;;;;420.90;230.43;;;;;;;1.64;48.79;95469.59;4934099;29;20118;-76
2022/01/20 06:59:17;;;;;;;405.27;212.23;;;;;;;1.64;48.25;95465.25;4917136;29;20035;-76
2022/01/20 07:01:43;;;;;;;284.63;140.63;;;;;;;1.79;47.94;95466.22;4933937;29;20043;-76
2022/01/20 07:04:10;;;;;;;188.60;88.53;;;;;;;1.95;47.30;95472.25;4901455;29;20034;-75
2022/01/20 07:06:36;;;;;;;234.18;112.25;;;;;;;2.07;47.77;95482.03;4917015;29;20114;-76
2022/01/20 07:09:01;;;;;;;141.27;70.13;;;;;;;2.24;46.58;95480.25;4900367;29;20055;-76
2022/01/20 07:11:27;;;;;;;133.85;66.65;;;;;;;2.33;46.06;95475.91;4901133;29;20424;-74
2022/01/20 07:13:52;;;;;;;198.25;93.65;;;;;;;2.50;46.34;95480.03;4916483;29;20040;-77
2022/01/20 07:16:17;;;;;;;136.40;67.03;;;;;;;2.66;45.71;95486.88;4916429;29;20788;-75
2022/01/20 07:18:43;;;;;;;100.18;47.42;;;;;;;2.77;45.07;95489.09;4933802;29;20028;-75
2022/01/20 07:21:08;;;;;;;81.88;42.83;;;;;;;2.88;44.72;95496.41;4900034;29;20066;-75
2022/01/20 07:23:34;;;;;;;88.10;42.05;;;;;;;3.01;44.96;95496.66;4916608;29;20035;-75
2022/01/20 07:25:59;;;;;;;62.10;31.35;;;;;;;3.17;44.08;95490.66;4916404;29;20036;-77
2022/01/20 07:28:24;;;;;;;55.95;24.95;;;;;;;3.30;43.46;95485.75;4885300;29;20039;-75
2022/01/20 07:30:50;;;;;;;53.42;23.67;;;;;;;3.41;43.65;95471.69;4931848;29;20024;-76
2022/01/20 07:33:15;;;;;;;70.88;29.60;;;;;;;3.54;43.03;95465.97;4915881;29;20048;-76
2022/01/20 07:35:41;;;;;;;52.25;24.50;;;;;;;3.66;42.38;95468.97;4915900;29;20032;-77
2022/01/20 07:38:06;;;;;;;95.35;45.05;;;;;;;3.80;42.99;95465.63;4900739;29;20086;-77
2022/01/20 07:40:32;;;;;;;51.90;22.77;;;;;;;3.99;42.04;95466.91;4916288;29;20031;-77
2022/01/20 07:42:58;;;;;;;44.22;19.67;;;;;;;3.99;40.44;95460.00;4933350;29;20039;-77
2022/01/20 07:45:23;;;;;;;46.90;21.75;;;;;;;3.89;41.32;95449.13;4901312;29;20034;-80
2022/01/20 07:47:49;;;;;;;46.30;20.45;;;;;;;3.99;40.98;95454.84;4902664;29;20535;-77
2022/01/20 07:50:14;;;;;;;39.70;19.63;;;;;;;4.11;41.14;95468.88;4915676;29;20082;-76
2022/01/20 07:52:40;;;;;;;49.58;21.60;;;;;;;4.22;41.27;95471.00;4931033;29;20155;-76
2022/01/20 07:55:05;;;;;;;37.75;19.98;;;;;;;4.36;41.07;95468.63;4933094;29;20400;-76
2022/01/20 07:57:33;;;;;;;47.72;24.38;;;;;;;4.47;40.51;95468.22;4931463;29;20043;-75
2022/01/20 07:59:59;;;;;;;47.17;23.95;;;;;;;4.67;40.15;95473.63;4901008;29;20119;-75
2022/01/20 08:02:28;;;;;;;60.72;26.40;;;;;;;4.81;39.72;95462.50;4900854;29;20071;-77
2022/01/20 08:04:53;;;;;;;61.10;27.77;;;;;;;4.95;40.26;95466.03;4915701;29;20484;-79
2022/01/20 08:07:19;;;;;;;73.70;33.22;;;;;;;4.95;40.06;95469.41;4938313;29;20043;-79
2022/01/20 08:09:45;;;;;;;76.80;33.70;;;;;;;4.97;39.58;95476.97;4936320;29;20035;-80
2022/01/20 08:12:11;;;;;;;63.13;28.52;;;;;;;4.95;41.05;95468.63;4916187;29;20035;-69
2022/01/20 08:14:37;;;;;;;53.13;23.63;;;;;;;4.97;40.51;95482.13;4932647;29;20042;-69
2022/01/20 08:17:02;;;;;;;49.67;23.88;;;;;;;5.01;39.08;95480.75;4915713;29;20054;-69
2022/01/20 08:19:28;;;;;;;49.15;24.00;;;;;;;4.96;39.32;95472.78;4932630;29;20420;-68
2022/01/20 08:21:53;;;;;;;48.38;24.92;;;;;;;5.00;39.39;95472.22;4933117;29;20191;-69
2022/01/20 08:24:18;;;;;;;70.15;26.02;;;;;;;4.98;39.62;95475.97;4932759;29;20024;-69
2022/01/20 08:26:44;;;;;;;50.95;25.67;;;;;;;4.95;39.80;95463.47;4932484;29;20032;-68
2022/01/20 08:29:09;;;;;;;51.67;24.67;;;;;;;5.02;39.05;95461.75;4932555;29;20044;-69
2022/01/20 08:31:35;;;;;;;53.63;22.10;;;;;;;4.97;38.83;95453.75;4915850;29;20027;-68
2022/01/20 08:34:00;;;;;;;56.38;22.88;;;;;;;5.00;39.79;95448.25;4932570;29;20051;-69
2022/01/20 08:36:26;;;;;;;47.30;24.00;;;;;;;5.04;39.18;95452.03;4899724;29;20039;-69
2022/01/20 08:38:51;;;;;;;62.70;26.45;;;;;;;5.07;38.89;95462.03;4915276;29;20088;-69
2022/01/20 08:41:16;;;;;;;51.30;24.83;;;;;;;4.94;39.61;95447.19;4899322;29;20507;-68
2022/01/20 08:43:42;;;;;;;67.07;24.80;;;;;;;4.95;41.05;95442.84;4915557;29;20036;-68
2022/01/20 08:46:11;;;;;;;59.80;27.02;;;;;;;4.98;39.70;95439.91;4932612;29;20035;-69
2022/01/20 08:48:36;;;;;;;50.90;26.80;;;;;;;4.98;40.08;95440.69;4932490;29;20050;-69
2022/01/20 08:51:03;;;;;;;58.63;27.38;;;;;;;5.07;39.88;95436.25;4899571;29;20496;-71
2022/01/20 08:53:28;;;;;;;59.60;29.00;;;;;;;5.13;39.75;95436.31;4912340;29;20070;-69
2022/01/20 08:55:54;;;;;;;59.60;28.50;;;;;;;5.17;39.22;95429.00;4932295;29;20040;-69
2022/01/20 08:58:19;;;;;;;58.80;28.55;;;;;;;5.20;38.65;95436.34;4899511;29;20040;-71
2022/01/20 09:00:44;;;;;;;75.15;33.58;;;;;;;5.18;40.94;95434.94;4899387;29;20043;-69
2022/01/20 09:03:10;;;;;;;70.93;32.95;;;;;;;5.24;39.00;95435.03;4898972;29;20404;-70
2022/01/20 09:05:35;;;;;;;72.55;32.10;;;;;;;5.28;39.19;95430.31;4931238;29;20392;-69
2022/01/20 09:08:01;;;;;;;80.43;37.22;;;;;;;5.38;38.91;95431.59;4914858;29;20508;-70
2022/01/20 09:10:29;;;;;;;72.38;34.67;;;;;;;5.51;39.17;95428.31;4914828;29;20816;-70
2022/01/20 09:15:39;;;;;;;69.18;29.55;;;;;;;5.66;38.37;95425.69;4931951;29;20134;-70
2022/01/20 09:18:07;;;;;;;64.65;28.92;;;;;;;5.69;39.63;95433.03;4931827;29;20102;-70
2022/01/20 09:20:33;;;;;;;57.53;24.00;;;;;;;5.79;38.66;95423.22;4930949;29;20059;-70
2022/01/20 09:22:59;;;;;;;54.63;21.70;;;;;;;5.90;39.56;95422.75;4931442;29;20060;-70
2022/01/20 09:25:30;;;;;;;50.83;21.58;;;;;;;5.94;38.12;95421.38;5178015;27;20128;-70
2022/01/20 09:27:55;;;;;;;63.65;23.50;;;;;;;6.01;38.69;95424.78;5166051;27;20026;-70
2022/01/20 09:30:22;;;;;;;62.00;23.40;;;;;;;6.12;38.99;95417.50;5156939;27;20079;-71
2022/01/20 09:32:59;;;;;;;57.42;23.38;;;;;;;6.17;38.12;95402.25;5156847;27;20058;-71
2022/01/20 09:35:32;;;;;;;58.58;24.85;;;;;;;6.19;39.14;95397.72;5155618;27;20023;-71
2022/01/20 09:38:01;;;;;;;49.35;21.08;;;;;;;6.25;37.97;95402.09;5156959;27;20498;-70
2022/01/20 09:40:34;;;;;;;50.60;21.42;;;;;;;6.30;38.22;95399.75;5152178;27;20023;-70
2022/01/20 09:42:59;;;;;;;35.58;11.10;;;;;;;6.17;35.73;95384.16;5158527;27;20515;-71
2022/01/20 09:45:25;;;;;;;43.38;20.95;;;;;;;6.15;37.33;95389.53;5149678;27;20034;-71
2022/01/20 09:47:50;;;;;;;18.35;9.35;;;;;;;6.05;36.21;95390.88;5136951;27;20050;-71
2022/01/20 09:50:19;;;;;;;13.95;7.55;;;;;;;6.00;35.68;95371.56;5154559;27;20031;-71
2022/01/20 09:52:45;;;;;;;32.67;7.93;;;;;;;5.92;36.65;95366.56;5168867;27;20505;-71
2022/01/20 09:55:10;;;;;;;19.52;7.97;;;;;;;5.94;35.41;95364.59;5155876;27;20027;-71
2022/01/20 09:57:38;;;;;;;36.80;8.18;;;;;;;5.88;36.03;95355.00;5157615;27;20035;-71
2022/01/20 10:00:09;;;;;;;16.30;7.97;;;;;;;6.00;35.74;95348.31;5156765;27;20026;-71
2022/01/20 10:02:35;;;;;;;12.45;7.47;;;;;;;6.07;34.74;95347.59;5152488;27;20062;-71
2022/01/20 10:05:01;;;;;;;15.00;7.22;;;;;;;6.21;36.29;95336.34;5156068;27;20038;-71
2022/01/20 10:07:35;;;;;;;15.30;6.57;;;;;;;6.36;34.88;95326.69;5150535;27;20036;-71
2022/01/20 10:10:03;;;;;;;13.63;4.53;;;;;;;6.39;31.38;95321.13;5155702;27;20034;-71
2022/01/20 10:12:30;;;;;;;8.45;4.07;;;;;;;6.45;30.75;95310.00;5152121;27;20031;-71
2022/01/20 10:14:56;;;;;;;18.67;4.50;;;;;;;6.50;31.70;95310.22;5137074;27;20045;-71
2022/01/20 10:17:30;;;;;;;10.48;4.20;;;;;;;6.58;31.75;95304.88;5152023;27;20026;-72
2022/01/20 10:20:02;;;;;;;14.73;4.00;;;;;;;6.70;32.21;95301.75;5154206;27;20039;-71
2022/01/20 10:22:28;;;;;;;16.20;5.07;;;;;;;6.82;31.18;95287.22;5154148;27;20043;-71
2022/01/20 10:25:03;;;;;;;13.95;4.35;;;;;;;6.91;30.59;95288.66;5152717;27;20413;-70
2022/01/20 10:27:33;;;;;;;12.65;4.43;;;;;;;6.91;30.11;95283.47;5152970;27;20042;-71
2022/01/20 10:30:05;;;;;;;14.82;4.60;;;;;;;7.00;30.42;95276.34;5155431;27;20058;-71
2022/01/20 10:32:43;;;;;;;17.88;6.05;;;;;;;7.08;30.94;95274.34;5153092;27;20064;-72
2022/01/20 10:35:09;;;;;;;21.00;5.43;;;;;;;7.18;30.68;95269.59;5150022;27;20047;-72
2022/01/20 10:37:35;;;;;;;11.90;4.93;;;;;;;7.32;30.32;95264.38;5142300;27;20505;-70
2022/01/20 10:40:11;;;;;;;11.27;6.07;;;;;;;7.39;30.71;95257.44;5141719;27;20032;-70
2022/01/20 10:42:42;;;;;;;13.50;4.07;;;;;;;7.45;29.38;95261.78;5143363;27;20027;-70
2022/01/20 10:45:08;;;;;;;19.05;4.60;;;;;;;7.50;29.69;95256.81;5124669;27;20069;-70
2022/01/20 10:47:36;;;;;;;5.30;3.25;;;;;;;7.48;29.27;95243.28;5124413;27;20032;-70
2022/01/20 10:50:23;;;;;;;11.48;5.68;;;;;;;7.49;29.45;95250.06;5123799;27;20182;-70
2022/01/20 10:52:50;;;;;;;13.82;4.72;;;;;;;7.47;30.07;95246.84;5139868;27;20125;-70
2022/01/20 10:55:47;;;;;;;9.88;4.47;;;;;;;7.52;30.29;95244.47;5142211;27;20038;-71
2022/01/20 10:58:23;;;;;;;14.88;4.78;;;;;;;7.54;29.48;95224.38;5140725;27;20059;-70
2022/01/20 11:00:53;;;;;;;23.80;4.82;;;;;;;7.58;29.84;95228.13;5144357;27;20120;-70
2022/01/20 11:03:19;;;;;;;17.95;6.80;;;;;;;7.65;30.93;95234.09;5137101;27;20502;-71
2022/01/20 11:05:49;;;;;;;21.20;6.88;;;;;;;7.73;29.59;95231.28;5141505;27;20037;-70
2022/01/20 11:08:14;;;;;;;19.20;8.32;;;;;;;7.81;27.21;95223.31;5124419;27;20035;-69
2022/01/20 11:10:42;;;;;;;17.52;8.63;;;;;;;7.94;26.12;95221.66;5140801;27;20037;-70
2022/01/20 11:13:15;;;;;;;59.67;14.48;;;;;;;7.95;26.35;95212.88;5124099;27;20023;-70
2022/01/20 11:15:40;;;;;;;8.90;5.50;;;;;;;8.01;26.24;95219.84;5123606;27;20403;-69
2022/01/20 11:18:06;;;;;;;17.40;8.88;;;;;;;8.02;26.85;95214.47;5142085;27;20084;-69
2022/01/20 11:20:42;;;;;;;22.50;7.47;;;;;;;8.10;27.18;95219.41;5142541;27;20046;-69
2022/01/20 11:23:07;;;;;;;15.50;7.35;;;;;;;8.17;26.61;95211.63;5158027;27;20347;-69
2022/01/20 11:25:37;;;;;;;15.90;5.57;;;;;;;8.22;26.21;95209.19;5142416;27;20034;-69
2022/01/20 11:28:08;;;;;;;20.42;6.60;;;;;;;8.19;26.54;95207.00;5138212;27;20410;-69
2022/01/20 11:30:35;;;;;;;11.98;5.25;;;;;;;8.17;27.89;95200.47;5139937;27;20477;-69
2022/01/20 11:33:03;;;;;;;15.30;8.10;;;;;;;8.18;27.13;95202.84;5140695;27;20034;-70
2022/01/20 11:35:49;;;;;;;17.60;7.75;;;;;;;8.15;26.81;95199.88;5133716;27;20035;-82
2022/01/20 11:38:16;;;;;;;41.33;11.90;;;;;;;8.08;27.25;95200.69;5118743;27;20034;-83
2022/01/20 11:40:59;;;;;;;17.67;9.35;;;;;;;8.09;27.54;95193.69;5151054;27;20027;-82
2022/01/20 11:43:54;;;;;;;36.65;11.75;;;;;;;8.10;27.95;95197.88;5151440;27;20110;-81
2022/01/20 11:46:24;;;;;;;9.80;4.38;;;;;;;8.14;27.99;95201.66;5120582;27;20047;-81
2022/01/20 11:48:50;;;;;;;25.27;10.75;;;;;;;8.19;28.32;95201.84;5126008;27;20054;-82
2022/01/20 11:51:18;;;;;;;34.15;12.90;;;;;;;8.22;28.01;95195.44;5146887;27;20574;-82
2022/01/20 11:54:03;;;;;;;31.92;11.02;;;;;;;8.24;27.53;95191.63;5112821;27;20091;-81
2022/01/20 11:56:39;;;;;;;39.85;13.73;;;;;;;8.29;26.96;95181.44;5137191;27;20035;-82
2022/01/20 11:59:06;;;;;;;21.52;10.98;;;;;;;8.35;28.69;95185.84;5125279;27;20038;-82
2022/01/20 12:01:48;;;;;;;15.48;6.85;;;;;;;8.40;28.80;95180.81;5115168;27;20034;-80
2022/01/20 12:04:15;;;;;;;12.15;6.18;;;;;;;8.40;29.03;95175.63;5146101;27;20039;-86
2022/01/20 12:06:46;;;;;;;12.63;4.20;;;;;;;8.40;27.74;95180.00;5124143;27;20031;-78
2022/01/20 12:09:13;;;;;;;10.10;4.00;;;;;;;8.28;28.42;95176.47;5121520;27;20027;-78
2022/01/20 12:11:47;;;;;;;17.25;6.00;;;;;;;8.13;28.52;95168.97;5144064;27;20401;-78
2022/01/20 12:14:15;;;;;;;11.38;6.40;;;;;;;8.01;29.39;95178.41;5142849;27;20023;-79
2022/01/20 12:16:41;;;;;;;6.60;4.50;;;;;;;7.96;29.51;95178.22;5142272;27;20030;-78
2022/01/20 12:19:09;;;;;;;9.27;4.68;;;;;;;7.93;29.29;95174.25;5144301;27;20477;-79
2022/01/20 12:21:34;;;;;;;26.83;10.48;;;;;;;7.90;30.11;95176.47;5125137;27;20484;-79
2022/01/20 12:24:00;;;;;;;26.15;14.77;;;;;;;7.94;30.25;95175.03;5124385;27;20039;-79
2022/01/20 12:26:25;;;;;;;27.60;11.20;;;;;;;7.97;30.58;95170.28;5145668;27;20035;-79
2022/01/20 12:29:23;;;;;;;12.82;7.68;;;;;;;8.07;28.96;95172.41;5109974;27;20027;-79